PWSweather.com
Personal Weather Stations
Station Observations
KMAMEDFI2
Medfield, MA 02052

Medfield, MA 02052

Lat: 42.1900822, Lon: -71.3296889

Elevation: 138

Station Type: Rainwise WS MK-III

http://www.medfieldweather.com

High Low Average
Temperature 34.1°F1.2°C 28.9°F-1.7°C 31.8°F-0.1°C
Dew Point 32.8°F0.4°C 27.4°F-2.6°C 30.4°F-0.9°C
Winds 3.5 mph 5.6 kmh Calm Calm 1.0 mph SSW1.6 kmh SSW
Wind Gusts 2.3 mph3.7 kmh -- 1.0 mph1.6 kmh
Humidity 95% 94% 95%
Pressure 31.47 in1065.7 mb 30.92 in1047.1 mb -
Precipitation 0.13 in3.3 mm - -
Hour Temp Dew Point Humidity Winds Wind Gusts Pressure Precip Precip Rate Daily Precip Total
12:00 AM 29.5°F-1.4°C 28.0°F-2.2°C 94% Calm Calm -- 31.47 in1065.7 mb - 0.00 in0.0 mm 0.00 in0.0 mm
12:10 AM 29.3°F-1.5°C 27.8°F-2.3°C 94% Calm Calm -- 31.47 in1065.7 mb - 0.00 in0.0 mm 0.00 in0.0 mm
12:20 AM 29.3°F-1.5°C 27.8°F-2.3°C 94% Calm Calm -- 31.47 in1065.7 mb - 0.00 in0.0 mm 0.00 in0.0 mm
12:30 AM 29.2°F-1.6°C 27.7°F-2.4°C 94% Calm Calm -- 31.46 in1065.4 mb - 0.00 in0.0 mm 0.00 in0.0 mm
12:40 AM 28.7°F-1.8°C 27.2°F-2.7°C 94% Calm Calm -- 31.46 in1065.4 mb - 0.00 in0.0 mm 0.00 in0.0 mm
12:50 AM 28.6°F-1.9°C 27.1°F-2.7°C 94% Calm Calm -- 31.47 in1065.7 mb - 0.00 in0.0 mm 0.00 in0.0 mm
01:00 AM 28.9°F-1.7°C 27.4°F-2.6°C 94% Calm Calm -- 31.46 in1065.4 mb - 0.00 in0.0 mm 0.00 in0.0 mm
01:10 AM 29.2°F-1.6°C 27.7°F-2.4°C 94% Calm Calm -- 31.46 in1065.4 mb - 0.00 in0.0 mm 0.00 in0.0 mm
01:20 AM 29.9°F-1.2°C 28.4°F-2.0°C 94% Calm Calm -- 31.46 in1065.4 mb - 0.00 in0.0 mm 0.00 in0.0 mm
01:30 AM 30.2°F-1.0°C 28.7°F-1.8°C 94% Calm Calm -- 31.47 in1065.7 mb - 0.00 in0.0 mm 0.00 in0.0 mm
01:40 AM 30.5°F-0.8°C 29.0°F-1.7°C 94% 3.5 mph ENE5.6 kmh ENE 2.3 mph3.7 kmh 31.46 in1065.4 mb - 0.00 in0.0 mm 0.00 in0.0 mm
01:50 AM 30.6°F-0.8°C 29.1°F-1.6°C 94% Calm Calm -- 31.46 in1065.4 mb - 0.00 in0.0 mm 0.00 in0.0 mm
02:00 AM 30.7°F-0.7°C 29.2°F-1.6°C 94% Calm Calm -- 31.46 in1065.4 mb - 0.00 in0.0 mm 0.00 in0.0 mm
02:10 AM 30.7°F-0.7°C 29.2°F-1.6°C 94% Calm Calm 1.2 mph1.9 kmh 31.47 in1065.7 mb - 0.00 in0.0 mm 0.00 in0.0 mm
02:20 AM 30.9°F-0.6°C 29.4°F-1.4°C 94% Calm Calm -- 31.47 in1065.7 mb - 0.00 in0.0 mm 0.00 in0.0 mm
02:30 AM 30.9°F-0.6°C 29.4°F-1.4°C 94% Calm Calm -- 31.47 in1065.7 mb - 0.00 in0.0 mm 0.00 in0.0 mm
02:40 AM 30.9°F-0.6°C 29.4°F-1.4°C 94% 1.2 mph SSW1.9 kmh SSW 2.3 mph3.7 kmh 31.47 in1065.7 mb - 0.00 in0.0 mm 0.00 in0.0 mm
02:50 AM 31.1°F-0.5°C 29.8°F-1.2°C 95% Calm Calm -- 31.47 in1065.7 mb - 0.00 in0.0 mm 0.00 in0.0 mm
03:00 AM 31.0°F-0.6°C 29.8°F-1.2°C 95% Calm Calm -- 31.47 in1065.7 mb - 0.00 in0.0 mm 0.00 in0.0 mm
03:10 AM 31.1°F-0.5°C 29.8°F-1.2°C 95% Calm Calm -- 31.47 in1065.7 mb - 0.00 in0.0 mm 0.00 in0.0 mm
03:20 AM 31.1°F-0.5°C 29.8°F-1.2°C 95% Calm Calm -- 31.47 in1065.7 mb - 0.00 in0.0 mm 0.00 in0.0 mm
03:30 AM 31.1°F-0.5°C 29.8°F-1.2°C 95% Calm Calm -- 31.47 in1065.7 mb - 0.00 in0.0 mm 0.00 in0.0 mm
03:40 AM 31.1°F-0.5°C 29.8°F-1.2°C 95% 2.3 mph SE3.7 kmh SE 2.3 mph3.7 kmh 31.47 in1065.7 mb - 0.00 in0.0 mm 0.00 in0.0 mm
03:50 AM 31.3°F-0.4°C 30.0°F-1.1°C 95% Calm Calm -- 31.46 in1065.4 mb - 0.00 in0.0 mm 0.00 in0.0 mm
04:00 AM 31.3°F-0.4°C 30.1°F-1.1°C 95% 2.3 mph ESE3.7 kmh ESE 2.3 mph3.7 kmh 31.46 in1065.4 mb - 0.00 in0.0 mm 0.00 in0.0 mm
04:10 AM 31.4°F-0.3°C 30.1°F-1.1°C 95% Calm Calm -- 31.46 in1065.4 mb - 0.00 in0.0 mm 0.00 in0.0 mm
04:20 AM 31.5°F-0.3°C 30.2°F-1.0°C 95% 3.5 mph ESE5.6 kmh ESE 2.3 mph3.7 kmh 31.46 in1065.4 mb - 0.00 in0.0 mm 0.00 in0.0 mm
04:30 AM 31.5°F-0.3°C 30.2°F-1.0°C 95% 1.2 mph SE1.9 kmh SE 1.2 mph1.9 kmh 31.45 in1065.0 mb - 0.00 in0.0 mm 0.00 in0.0 mm
04:40 AM 31.5°F-0.3°C 30.2°F-1.0°C 95% 2.3 mph SE3.7 kmh SE 2.3 mph3.7 kmh 31.45 in1065.0 mb - 0.00 in0.0 mm 0.00 in0.0 mm
04:50 AM 31.5°F-0.3°C 30.2°F-1.0°C 95% 1.2 mph SE1.9 kmh SE 1.2 mph1.9 kmh 31.45 in1065.0 mb - 0.00 in0.0 mm 0.00 in0.0 mm
05:00 AM 31.5°F-0.3°C 30.2°F-1.0°C 95% 2.3 mph ESE3.7 kmh ESE 2.3 mph3.7 kmh 31.45 in1065.0 mb - 0.00 in0.0 mm 0.00 in0.0 mm
05:10 AM 31.6°F-0.2°C 30.3°F-0.9°C 95% 1.2 mph SE1.9 kmh SE 1.2 mph1.9 kmh 31.45 in1065.0 mb - 0.00 in0.0 mm 0.00 in0.0 mm
05:20 AM 31.6°F-0.2°C 30.3°F-0.9°C 95% 1.2 mph E1.9 kmh E 1.2 mph1.9 kmh 31.45 in1065.0 mb - 0.00 in0.0 mm 0.00 in0.0 mm
05:30 AM 31.5°F-0.3°C 30.2°F-1.0°C 95% 3.5 mph ESE5.6 kmh ESE 2.3 mph3.7 kmh 31.45 in1065.0 mb - 0.00 in0.0 mm 0.00 in0.0 mm
05:40 AM 31.5°F-0.3°C 30.2°F-1.0°C 95% 2.3 mph ESE3.7 kmh ESE 2.3 mph3.7 kmh 31.45 in1065.0 mb - 0.00 in0.0 mm 0.00 in0.0 mm
05:50 AM 31.4°F-0.3°C 30.2°F-1.0°C 95% 1.2 mph ESE1.9 kmh ESE 1.2 mph1.9 kmh 31.44 in1064.7 mb - 0.00 in0.0 mm 0.00 in0.0 mm
06:00 AM 31.4°F-0.3°C 30.1°F-1.1°C 95% 3.5 mph ESE5.6 kmh ESE 2.3 mph3.7 kmh 31.44 in1064.7 mb - 0.00 in0.0 mm 0.00 in0.0 mm
06:10 AM 31.4°F-0.3°C 30.1°F-1.1°C 95% 1.2 mph ESE1.9 kmh ESE 1.2 mph1.9 kmh 31.44 in1064.7 mb - 0.00 in0.0 mm 0.00 in0.0 mm
06:20 AM 31.4°F-0.3°C 30.1°F-1.1°C 95% Calm Calm -- 31.44 in1064.7 mb - 0.00 in0.0 mm 0.00 in0.0 mm
06:30 AM 31.4°F-0.3°C 30.1°F-1.1°C 95% Calm Calm -- 31.44 in1064.7 mb - 0.00 in0.0 mm 0.00 in0.0 mm
06:40 AM 31.2°F-0.4°C 29.9°F-1.2°C 95% Calm Calm -- 31.43 in1064.3 mb - 0.00 in0.0 mm 0.00 in0.0 mm
06:50 AM 30.9°F-0.6°C 29.4°F-1.4°C 94% Calm Calm -- 31.42 in1064.0 mb - 0.00 in0.0 mm 0.00 in0.0 mm
07:00 AM 30.8°F-0.7°C 29.3°F-1.5°C 94% Calm Calm -- 31.42 in1064.0 mb - 0.00 in0.0 mm 0.00 in0.0 mm
07:10 AM 30.7°F-0.7°C 29.2°F-1.6°C 94% Calm Calm -- 31.42 in1064.0 mb - 0.00 in0.0 mm 0.00 in0.0 mm
07:20 AM 30.6°F-0.8°C 29.1°F-1.6°C 94% Calm Calm -- 31.43 in1064.3 mb - 0.00 in0.0 mm 0.00 in0.0 mm
07:30 AM 30.6°F-0.8°C 29.1°F-1.6°C 94% Calm Calm -- 31.43 in1064.3 mb - 0.00 in0.0 mm 0.00 in0.0 mm
07:40 AM 30.5°F-0.8°C 29.0°F-1.7°C 94% Calm Calm -- 31.42 in1064.0 mb - 0.00 in0.0 mm 0.00 in0.0 mm
07:50 AM 30.5°F-0.8°C 28.9°F-1.7°C 94% Calm Calm -- 31.42 in1064.0 mb - 0.00 in0.0 mm 0.00 in0.0 mm
08:00 AM 30.4°F-0.9°C 28.9°F-1.7°C 94% Calm Calm -- 31.41 in1063.7 mb - 0.00 in0.0 mm 0.00 in0.0 mm
08:10 AM 30.4°F-0.9°C 28.9°F-1.7°C 94% Calm Calm -- 31.41 in1063.7 mb - 0.00 in0.0 mm 0.00 in0.0 mm
08:20 AM 30.4°F-0.9°C 28.9°F-1.7°C 94% Calm Calm -- 31.41 in1063.7 mb - 0.00 in0.0 mm 0.00 in0.0 mm
08:30 AM 30.4°F-0.9°C 28.9°F-1.7°C 94% Calm Calm -- 31.41 in1063.7 mb - 0.00 in0.0 mm 0.00 in0.0 mm
08:40 AM 30.5°F-0.8°C 29.0°F-1.7°C 94% Calm Calm -- 31.41 in1063.7 mb - 0.00 in0.0 mm 0.00 in0.0 mm
08:50 AM 30.6°F-0.8°C 29.1°F-1.6°C 94% Calm Calm -- 31.41 in1063.7 mb - 0.00 in0.0 mm 0.00 in0.0 mm
09:00 AM 30.7°F-0.7°C 29.2°F-1.6°C 94% Calm Calm -- 31.41 in1063.7 mb - 0.00 in0.0 mm 0.00 in0.0 mm
09:10 AM 30.9°F-0.6°C 29.4°F-1.4°C 94% Calm Calm -- 31.40 in1063.3 mb - 0.00 in0.0 mm 0.00 in0.0 mm
09:20 AM 31.1°F-0.5°C 29.8°F-1.2°C 95% Calm Calm -- 31.40 in1063.3 mb - 0.00 in0.0 mm 0.00 in0.0 mm
09:30 AM 31.2°F-0.4°C 30.0°F-1.1°C 95% Calm Calm -- 31.40 in1063.3 mb - 0.00 in0.0 mm 0.00 in0.0 mm
09:40 AM 31.4°F-0.3°C 30.1°F-1.1°C 95% Calm Calm -- 31.40 in1063.3 mb - 0.00 in0.0 mm 0.00 in0.0 mm
09:50 AM 31.6°F-0.2°C 30.3°F-0.9°C 95% Calm Calm -- 31.39 in1063.0 mb - 0.00 in0.0 mm 0.00 in0.0 mm
10:00 AM 31.8°F-0.1°C 30.5°F-0.8°C 95% Calm Calm -- 31.39 in1063.0 mb - 0.00 in0.0 mm 0.00 in0.0 mm
10:10 AM 32.1°F0.1°C 30.8°F-0.7°C 95% Calm Calm -- 31.38 in1062.6 mb - 0.00 in0.0 mm 0.00 in0.0 mm
10:20 AM 32.3°F0.2°C 31.0°F-0.6°C 95% Calm Calm -- 31.37 in1062.3 mb - 0.00 in0.0 mm 0.00 in0.0 mm
10:30 AM 32.7°F0.4°C 31.4°F-0.3°C 95% Calm Calm -- 31.34 in1061.3 mb - 0.00 in0.0 mm 0.00 in0.0 mm
10:40 AM 32.8°F0.4°C 31.5°F-0.3°C 95% Calm Calm -- 31.31 in1060.3 mb - 0.00 in0.0 mm 0.00 in0.0 mm
10:50 AM 32.9°F0.5°C 31.6°F-0.2°C 95% Calm Calm -- 31.28 in1059.3 mb - 0.00 in0.0 mm 0.00 in0.0 mm
11:00 AM 33.0°F0.6°C 31.7°F-0.2°C 95% Calm Calm -- 31.26 in1058.6 mb - 0.00 in0.0 mm 0.00 in0.0 mm
11:10 AM 33.3°F0.7°C 32.0°F0.0°C 95% Calm Calm -- 31.24 in1057.9 mb - 0.00 in0.0 mm 0.00 in0.0 mm
11:20 AM 33.3°F0.7°C 32.0°F0.0°C 95% Calm Calm -- 31.21 in1056.9 mb - 0.00 in0.0 mm 0.00 in0.0 mm
11:30 AM 33.5°F0.8°C 32.2°F0.1°C 95% Calm Calm -- 31.17 in1055.5 mb - 0.00 in0.0 mm 0.00 in0.0 mm
11:40 AM 33.5°F0.8°C 32.2°F0.1°C 95% Calm Calm -- 31.14 in1054.5 mb - 0.00 in0.0 mm 0.00 in0.0 mm
11:50 AM 33.7°F0.9°C 32.4°F0.2°C 95% Calm Calm -- 31.11 in1053.5 mb - 0.00 in0.0 mm 0.00 in0.0 mm
12:00 PM 33.8°F1.0°C 32.5°F0.3°C 95% Calm Calm -- 31.10 in1053.2 mb - 0.00 in0.0 mm 0.00 in0.0 mm
12:10 PM 34.1°F1.2°C 32.8°F0.4°C 95% Calm Calm -- 31.08 in1052.5 mb - 0.00 in0.0 mm 0.00 in0.0 mm
12:20 PM 33.9°F1.1°C 32.6°F0.3°C 95% 1.2 mph N1.9 kmh N 1.2 mph1.9 kmh 31.05 in1051.5 mb - 0.00 in0.0 mm 0.00 in0.0 mm
12:30 PM 33.9°F1.1°C 32.6°F0.3°C 95% 1.2 mph S1.9 kmh S 2.3 mph3.7 kmh 31.03 in1050.8 mb - 0.00 in0.0 mm 0.00 in0.0 mm
12:40 PM 33.9°F1.1°C 32.6°F0.3°C 95% Calm Calm -- 31.02 in1050.5 mb - 0.00 in0.0 mm 0.00 in0.0 mm
12:50 PM 33.9°F1.1°C 32.6°F0.3°C 95% Calm Calm -- 31.01 in1050.1 mb - 0.00 in0.0 mm 0.00 in0.0 mm
01:00 PM 33.8°F1.0°C 32.5°F0.3°C 95% Calm Calm -- 31.00 in1049.8 mb - 0.00 in0.0 mm 0.00 in0.0 mm
01:10 PM 33.9°F1.1°C 32.6°F0.3°C 95% 1.2 mph NNW1.9 kmh NNW 1.2 mph1.9 kmh 30.99 in1049.4 mb - 0.02 in0.5 mm 0.02 in0.5 mm
01:20 PM 33.8°F1.0°C 32.5°F0.3°C 95% 1.2 mph E1.9 kmh E -- 30.97 in1048.8 mb - 0.01 in0.3 mm 0.03 in0.8 mm
01:30 PM 33.9°F1.1°C 32.6°F0.3°C 95% 1.2 mph ENE1.9 kmh ENE 1.2 mph1.9 kmh 30.96 in1048.4 mb - 0.01 in0.3 mm 0.04 in1.0 mm
01:40 PM 33.8°F1.0°C 32.5°F0.3°C 95% 1.2 mph N1.9 kmh N -- 30.95 in1048.1 mb - 0.01 in0.3 mm 0.05 in1.3 mm
01:50 PM 33.8°F1.0°C 32.5°F0.3°C 95% Calm Calm -- 30.94 in1047.7 mb - 0.01 in0.3 mm 0.06 in1.5 mm
02:00 PM 33.7°F0.9°C 32.4°F0.2°C 95% Calm Calm -- 30.95 in1048.1 mb - 0.00 in0.0 mm 0.06 in1.5 mm
02:10 PM 33.5°F0.8°C 32.2°F0.1°C 95% 2.3 mph WNW3.7 kmh WNW 2.3 mph3.7 kmh 30.95 in1048.1 mb - 0.01 in0.3 mm 0.07 in1.8 mm
02:20 PM 33.4°F0.8°C 32.1°F0.1°C 95% 2.3 mph W3.7 kmh W 2.3 mph3.7 kmh 30.96 in1048.4 mb - 0.00 in0.0 mm 0.07 in1.8 mm
02:30 PM 33.3°F0.7°C 32.0°F0.0°C 95% 1.2 mph SW1.9 kmh SW -- 30.95 in1048.1 mb - 0.01 in0.3 mm 0.08 in2.0 mm
02:40 PM 33.3°F0.7°C 32.0°F0.0°C 95% Calm Calm -- 30.94 in1047.7 mb - 0.00 in0.0 mm 0.08 in2.0 mm
02:50 PM 33.4°F0.8°C 32.1°F0.1°C 95% 1.2 mph WNW1.9 kmh WNW 1.2 mph1.9 kmh 30.94 in1047.7 mb - 0.01 in0.3 mm 0.09 in2.3 mm
03:00 PM 33.4°F0.8°C 32.1°F0.1°C 95% Calm Calm -- 30.93 in1047.4 mb - 0.01 in0.3 mm 0.09 in2.3 mm
03:10 PM 33.4°F0.8°C 32.1°F0.1°C 95% Calm Calm -- 30.94 in1047.7 mb - 0.01 in0.3 mm 0.10 in2.5 mm
03:20 PM 33.4°F0.8°C 32.1°F0.1°C 95% Calm Calm -- 30.94 in1047.7 mb - 0.01 in0.3 mm 0.10 in2.5 mm
03:30 PM 33.5°F0.8°C 32.2°F0.1°C 95% Calm Calm -- 30.93 in1047.4 mb - 0.00 in0.0 mm 0.10 in2.5 mm
03:40 PM 33.6°F0.9°C 32.3°F0.2°C 95% Calm Calm -- 30.92 in1047.1 mb - 0.01 in0.3 mm 0.11 in2.8 mm
03:50 PM 33.7°F0.9°C 32.4°F0.2°C 95% Calm Calm -- 30.92 in1047.1 mb - 0.00 in0.0 mm 0.11 in2.8 mm
04:00 PM 33.7°F0.9°C 32.4°F0.2°C 95% Calm Calm -- 30.92 in1047.1 mb - 0.00 in0.0 mm 0.11 in2.8 mm
04:10 PM 33.4°F0.8°C 32.1°F0.1°C 95% 2.3 mph W3.7 kmh W 1.2 mph1.9 kmh 30.94 in1047.7 mb - 0.01 in0.3 mm 0.12 in3.0 mm
04:20 PM 33.2°F0.7°C 31.9°F-0.1°C 95% 1.2 mph WNW1.9 kmh WNW -- 30.95 in1048.1 mb - 0.00 in0.0 mm 0.12 in3.0 mm
04:30 PM 33.1°F0.6°C 31.8°F-0.1°C 95% 1.2 mph W1.9 kmh W 2.3 mph3.7 kmh 30.96 in1048.4 mb - 0.00 in0.0 mm 0.12 in3.0 mm
04:40 PM 32.9°F0.5°C 31.6°F-0.2°C 95% 3.5 mph W5.6 kmh W 2.3 mph3.7 kmh 30.98 in1049.1 mb - 0.00 in0.0 mm 0.12 in3.0 mm
04:50 PM 32.8°F0.4°C 31.5°F-0.3°C 95% Calm Calm 2.3 mph3.7 kmh 31.00 in1049.8 mb - 0.00 in0.0 mm 0.12 in3.0 mm
05:00 PM 32.7°F0.4°C 31.4°F-0.3°C 95% 1.2 mph WNW1.9 kmh WNW 2.3 mph3.7 kmh 31.01 in1050.1 mb - 0.00 in0.0 mm 0.12 in3.0 mm
05:10 PM 32.5°F0.3°C 31.2°F-0.4°C 95% 1.2 mph WNW1.9 kmh WNW 2.3 mph3.7 kmh 31.02 in1050.5 mb - 0.00 in0.0 mm 0.12 in3.0 mm
05:20 PM 32.4°F0.2°C 31.1°F-0.5°C 95% Calm Calm -- 31.04 in1051.1 mb - 0.01 in0.3 mm 0.13 in3.3 mm
05:30 PM 32.3°F0.2°C 31.0°F-0.6°C 95% 1.2 mph W1.9 kmh W 1.2 mph1.9 kmh 31.05 in1051.5 mb - 0.00 in0.0 mm 0.13 in3.3 mm
05:40 PM 32.3°F0.2°C 31.0°F-0.6°C 95% 3.5 mph NW5.6 kmh NW 2.3 mph3.7 kmh 31.06 in1051.8 mb - 0.00 in0.0 mm 0.13 in3.3 mm
05:50 PM 32.2°F0.1°C 30.9°F-0.6°C 95% 2.3 mph WNW3.7 kmh WNW 2.3 mph3.7 kmh 31.07 in1052.2 mb - 0.00 in0.0 mm 0.13 in3.3 mm
06:00 PM 32.2°F0.1°C 30.9°F-0.6°C 95% 1.2 mph W1.9 kmh W 1.2 mph1.9 kmh 31.08 in1052.5 mb - 0.00 in0.0 mm 0.13 in3.3 mm
06:10 PM 32.1°F0.1°C 30.8°F-0.7°C 95% 1.2 mph WNW1.9 kmh WNW 1.2 mph1.9 kmh 31.08 in1052.5 mb - 0.00 in0.0 mm 0.13 in3.3 mm
06:20 PM 32.0°F0.0°C 30.7°F-0.7°C 95% 1.2 mph NE1.9 kmh NE 1.2 mph1.9 kmh 31.09 in1052.8 mb - 0.00 in0.0 mm 0.13 in3.3 mm
06:30 PM 31.9°F-0.1°C 30.7°F-0.7°C 95% Calm Calm -- 31.10 in1053.2 mb - 0.00 in0.0 mm 0.13 in3.3 mm
06:40 PM 31.9°F-0.1°C 30.6°F-0.8°C 95% Calm Calm -- 31.11 in1053.5 mb - 0.00 in0.0 mm 0.13 in3.3 mm
06:50 PM 31.9°F-0.1°C 30.6°F-0.8°C 95% Calm Calm -- 31.12 in1053.8 mb - 0.00 in0.0 mm 0.13 in3.3 mm
07:00 PM 31.9°F-0.1°C 30.6°F-0.8°C 95% 1.2 mph W1.9 kmh W 1.2 mph1.9 kmh 31.13 in1054.2 mb - 0.00 in0.0 mm 0.13 in3.3 mm
07:10 PM 31.8°F-0.1°C 30.6°F-0.8°C 95% Calm Calm -- 31.13 in1054.2 mb - 0.00 in0.0 mm 0.13 in3.3 mm
07:20 PM 31.8°F-0.1°C 30.6°F-0.8°C 95% 1.2 mph NW1.9 kmh NW 1.2 mph1.9 kmh 31.14 in1054.5 mb - 0.00 in0.0 mm 0.13 in3.3 mm
07:30 PM 31.8°F-0.1°C 30.6°F-0.8°C 95% Calm Calm -- 31.14 in1054.5 mb - 0.00 in0.0 mm 0.13 in3.3 mm
07:40 PM 31.7°F-0.2°C 30.5°F-0.8°C 95% Calm Calm -- 31.15 in1054.9 mb - 0.00 in0.0 mm 0.13 in3.3 mm
07:50 PM 31.6°F-0.2°C 30.4°F-0.9°C 95% Calm Calm -- 31.15 in1054.9 mb - 0.00 in0.0 mm 0.13 in3.3 mm
08:00 PM 31.5°F-0.3°C 30.3°F-0.9°C 95% Calm Calm -- 31.16 in1055.2 mb - 0.00 in0.0 mm 0.13 in3.3 mm
08:10 PM 31.5°F-0.3°C 30.3°F-0.9°C 95% Calm Calm -- 31.16 in1055.2 mb - 0.00 in0.0 mm 0.13 in3.3 mm
08:20 PM 31.5°F-0.3°C 30.2°F-1.0°C 95% Calm Calm -- 31.16 in1055.2 mb - 0.00 in0.0 mm 0.13 in3.3 mm
08:30 PM 31.4°F-0.3°C 30.2°F-1.0°C 95% Calm Calm 1.2 mph1.9 kmh 31.16 in1055.2 mb - 0.00 in0.0 mm 0.13 in3.3 mm
08:40 PM 31.4°F-0.3°C 30.2°F-1.0°C 95% 1.2 mph WNW1.9 kmh WNW 1.2 mph1.9 kmh 31.16 in1055.2 mb - 0.00 in0.0 mm 0.13 in3.3 mm
08:50 PM 31.5°F-0.3°C 30.2°F-1.0°C 95% 1.2 mph WNW1.9 kmh WNW 1.2 mph1.9 kmh 31.16 in1055.2 mb - 0.00 in0.0 mm 0.13 in3.3 mm
09:00 PM 31.3°F-0.4°C 30.1°F-1.1°C 95% Calm Calm 1.2 mph1.9 kmh 31.16 in1055.2 mb - 0.00 in0.0 mm 0.13 in3.3 mm
09:10 PM 31.3°F-0.4°C 30.1°F-1.1°C 95% Calm Calm 1.2 mph1.9 kmh 31.17 in1055.5 mb - 0.00 in0.0 mm 0.13 in3.3 mm
09:20 PM 31.2°F-0.4°C 30.0°F-1.1°C 95% 1.2 mph WNW1.9 kmh WNW 1.2 mph1.9 kmh 31.17 in1055.5 mb - 0.00 in0.0 mm 0.13 in3.3 mm
09:30 PM 31.2°F-0.4°C 30.0°F-1.1°C 95% Calm Calm 1.2 mph1.9 kmh 31.17 in1055.5 mb - 0.00 in0.0 mm 0.13 in3.3 mm
09:40 PM 31.2°F-0.4°C 30.0°F-1.1°C 95% 1.2 mph WNW1.9 kmh WNW 1.2 mph1.9 kmh 31.18 in1055.9 mb - 0.00 in0.0 mm 0.13 in3.3 mm
09:50 PM 31.1°F-0.5°C 29.9°F-1.2°C 95% Calm Calm -- 31.17 in1055.5 mb - 0.00 in0.0 mm 0.13 in3.3 mm
10:00 PM 31.1°F-0.5°C 29.9°F-1.2°C 95% Calm Calm -- 31.18 in1055.9 mb - 0.00 in0.0 mm 0.13 in3.3 mm
10:10 PM 31.0°F-0.6°C 29.8°F-1.2°C 95% Calm Calm -- 31.18 in1055.9 mb - 0.00 in0.0 mm 0.13 in3.3 mm
10:20 PM 30.9°F-0.6°C 29.4°F-1.4°C 94% Calm Calm -- 31.19 in1056.2 mb - 0.00 in0.0 mm 0.13 in3.3 mm
10:30 PM 30.9°F-0.6°C 29.4°F-1.4°C 94% Calm Calm -- 31.18 in1055.9 mb - 0.00 in0.0 mm 0.13 in3.3 mm
10:40 PM 30.9°F-0.6°C 29.4°F-1.4°C 94% Calm Calm -- 31.18 in1055.9 mb - 0.00 in0.0 mm 0.13 in3.3 mm
10:50 PM 30.9°F-0.6°C 29.4°F-1.4°C 94% Calm Calm -- 31.17 in1055.5 mb - 0.00 in0.0 mm 0.13 in3.3 mm
11:00 PM 30.9°F-0.6°C 29.4°F-1.4°C 94% Calm Calm -- 31.17 in1055.5 mb - 0.00 in0.0 mm 0.13 in3.3 mm
11:10 PM 30.9°F-0.6°C 29.4°F-1.4°C 94% Calm Calm -- 31.17 in1055.5 mb - 0.00 in0.0 mm 0.13 in3.3 mm
11:20 PM 30.8°F-0.7°C 29.3°F-1.5°C 94% Calm Calm -- 31.18 in1055.9 mb - 0.00 in0.0 mm 0.13 in3.3 mm
11:30 PM 30.8°F-0.7°C 29.3°F-1.5°C 94% Calm Calm -- 31.18 in1055.9 mb - 0.00 in0.0 mm 0.13 in3.3 mm
11:40 PM 30.8°F-0.7°C 29.3°F-1.5°C 94% Calm Calm -- 31.18 in1055.9 mb - 0.00 in0.0 mm 0.13 in3.3 mm
11:50 PM 30.8°F-0.7°C 29.3°F-1.5°C 94% 2.3 mph WNW3.7 kmh WNW 2.3 mph3.7 kmh 31.18 in1055.9 mb - 0.00 in0.0 mm 0.13 in3.3 mm